Time;durP1;ratioP1;P1;durP2;ratioP2;P2;SDS_P1;SDS_P2;PMS_P1;PMS_P2;Temp;Humidity;BMP_temperature;BMP_pressure;BME280_temperature;BME280_humidity;BME280_pressure;Samples;Min_cycle;Max_cycle;Signal;HPM_P1;HPM_P2
2023/10/10 00:01:43;;;;;;;11.95;3.60;;;18.10;99.90;;;;;;4990684;28;20049;-72
2023/10/10 00:04:12;;;;;;;18.25;4.93;;;18.20;99.90;;;;;;4993637;28;20034;-73
2023/10/10 00:06:39;;;;;;;19.33;4.13;;;18.40;99.90;;;;;;4990030;28;20150;-73
2023/10/10 00:09:11;;;;;;;13.75;3.70;;;18.30;99.90;;;;;;4992164;28;20030;-73
2023/10/10 00:11:43;;;;;;;13.18;2.90;;;18.30;99.90;;;;;;4999062;28;20392;-73
2023/10/10 00:14:19;;;;;;;11.73;2.67;;;18.40;99.90;;;;;;4990047;28;20025;-73
2023/10/10 00:16:47;;;;;;;16.23;3.45;;;18.10;99.90;;;;;;4991427;28;20057;-73
2023/10/10 00:19:29;;;;;;;18.27;3.38;;;18.10;99.90;;;;;;4994550;28;20026;-72
2023/10/10 00:21:56;;;;;;;22.45;4.60;;;18.20;99.90;;;;;;4991333;28;20433;-72
2023/10/10 00:24:31;;;;;;;14.98;3.67;;;18.20;99.90;;;;;;4990453;28;20117;-72
2023/10/10 00:27:14;;;;;;;17.33;4.05;;;18.30;99.90;;;;;;4990737;28;20034;-73
2023/10/10 00:29:45;;;;;;;22.75;4.15;;;18.30;99.90;;;;;;4992324;28;20041;-73
2023/10/10 00:32:16;;;;;;;17.40;4.18;;;18.20;99.90;;;;;;4992507;28;20464;-73
2023/10/10 00:34:47;;;;;;;11.40;3.90;;;18.10;99.90;;;;;;4978771;28;20423;-73
2023/10/10 00:37:21;;;;;;;15.95;4.25;;;18.10;99.90;;;;;;4991683;28;20034;-72
2023/10/10 00:39:53;;;;;;;22.67;3.95;;;18.10;99.90;;;;;;4991978;28;20026;-73
2023/10/10 00:42:19;;;;;;;17.73;4.43;;;18.10;99.90;;;;;;4992002;28;20080;-72
2023/10/10 00:44:49;;;;;;;13.15;2.78;;;18.00;99.90;;;;;;4990865;28;20070;-72
2023/10/10 00:47:17;;;;;;;20.50;3.92;;;18.00;99.90;;;;;;4990055;28;20118;-73
2023/10/10 00:49:45;;;;;;;14.55;3.70;;;18.10;99.90;;;;;;4990666;28;20022;-72
2023/10/10 00:52:15;;;;;;;13.38;3.40;;;18.10;99.90;;;;;;4989917;28;20080;-73
2023/10/10 00:54:43;;;;;;;7.82;2.72;;;18.00;99.90;;;;;;4992225;28;20033;-73
2023/10/10 00:57:17;;;;;;;13.23;3.63;;;18.00;99.90;;;;;;4995602;28;20042;-72
2023/10/10 00:59:48;;;;;;;19.08;3.67;;;18.10;99.90;;;;;;4990616;28;20555;-73
2023/10/10 01:02:20;;;;;;;13.63;4.13;;;18.10;99.90;;;;;;4989557;28;20029;-72
2023/10/10 01:07:20;;;;;;;10.40;3.00;;;18.20;99.90;;;;;;4989516;28;20052;-72
2023/10/10 01:09:56;;;;;;;12.18;3.85;;;18.00;99.90;;;;;;4994254;28;20096;-72
2023/10/10 01:12:24;;;;;;;21.45;3.83;;;17.90;99.90;;;;;;4996129;28;20019;-73
2023/10/10 01:14:57;;;;;;;15.50;4.00;;;17.90;99.90;;;;;;4993551;28;26010;-73
2023/10/10 01:17:29;;;;;;;15.38;3.55;;;17.80;99.90;;;;;;4989180;28;20027;-69
2023/10/10 01:20:14;;;;;;;15.10;3.53;;;17.70;99.90;;;;;;4997791;28;20041;-69
2023/10/10 01:22:46;;;;;;;20.50;4.57;;;17.70;99.90;;;;;;4989905;28;20084;-69
2023/10/10 01:27:58;;;;;;;19.45;4.00;;;17.70;99.90;;;;;;4989867;28;20389;-70
2023/10/10 01:33:16;;;;;;;19.42;3.97;;;17.80;99.90;;;;;;4996672;28;20057;-69
2023/10/10 01:35:43;;;;;;;11.80;3.20;;;17.80;99.90;;;;;;4988764;28;20030;-69
2023/10/10 01:38:32;;;;;;;10.43;2.88;;;17.60;99.90;;;;;;4995632;28;20116;-69
2023/10/10 01:41:02;;;;;;;14.70;3.08;;;17.20;99.90;;;;;;4989257;28;20092;-70
2023/10/10 01:43:32;;;;;;;13.65;3.90;;;17.00;99.90;;;;;;4996297;28;20028;-69
2023/10/10 01:46:18;;;;;;;18.65;4.97;;;17.00;99.90;;;;;;4988560;28;20041;-69
2023/10/10 01:48:44;;;;;;;16.45;4.35;;;17.30;99.90;;;;;;4993985;28;20101;-70
2023/10/10 01:51:16;;;;;;;15.77;3.78;;;17.40;99.90;;;;;;4989619;28;20117;-69
2023/10/10 01:53:44;;;;;;;12.07;3.05;;;17.40;99.90;;;;;;4988984;28;20030;-69
2023/10/10 01:56:12;;;;;;;16.40;3.47;;;17.20;99.90;;;;;;4991741;28;20042;-69
2023/10/10 01:58:38;;;;;;;9.77;3.40;;;17.00;99.90;;;;;;4993564;28;20117;-69
2023/10/10 02:01:16;;;;;;;11.73;4.07;;;16.90;99.90;;;;;;4990740;28;20050;-69
2023/10/10 02:03:43;;;;;;;11.40;2.88;;;16.80;99.90;;;;;;4988846;28;20029;-69
2023/10/10 02:06:15;;;;;;;14.60;4.28;;;16.80;99.90;;;;;;4987204;28;20056;-69
2023/10/10 02:08:41;;;;;;;14.00;3.65;;;17.00;99.90;;;;;;4993608;28;20061;-69
2023/10/10 02:11:12;;;;;;;13.30;3.50;;;17.20;99.90;;;;;;4987532;28;20572;-70
2023/10/10 02:13:39;;;;;;;15.40;4.28;;;17.30;99.90;;;;;;4988858;28;20481;-69
2023/10/10 02:16:06;;;;;;;22.63;4.13;;;17.50;99.70;;;;;;4995480;28;20018;-69
2023/10/10 02:18:44;;;;;;;11.40;3.33;;;17.60;99.60;;;;;;4990523;28;20057;-69
2023/10/10 02:21:17;;;;;;;13.00;2.80;;;17.50;99.70;;;;;;4987703;28;20025;-69
2023/10/10 02:23:46;;;;;;;12.38;3.65;;;17.30;99.90;;;;;;4991274;28;20101;-69
2023/10/10 02:26:35;;;;;;;14.38;3.58;;;17.10;99.90;;;;;;4987464;28;20543;-69
2023/10/10 02:32:05;;;;;;;13.13;2.63;;;16.90;99.90;;;;;;4992758;28;20041;-69
2023/10/10 02:34:34;;;;;;;15.00;2.97;;;16.70;99.90;;;;;;4993667;28;20503;-69
2023/10/10 02:42:36;;;;;;;13.07;2.63;;;17.00;99.90;;;;;;4993858;28;20050;-69
2023/10/10 02:45:02;;;;;;;14.10;4.30;;;17.30;99.40;;;;;;4991640;28;20035;-69
2023/10/10 02:47:32;;;;;;;11.55;2.92;;;17.40;99.40;;;;;;4993154;28;20041;-69
2023/10/10 02:50:44;;;;;;;12.43;3.97;;;17.10;99.70;;;;;;4992082;28;20038;-69
2023/10/10 02:52:59;;;;;;;13.77;2.88;;;17.20;99.60;;;;;;4984054;28;20045;-70
2023/10/10 02:55:33;;;;;;;;;;;17.30;99.40;;;;;;4999852;28;20057;-69
2023/10/10 02:57:59;;;;;;;16.13;4.20;;;17.20;99.60;;;;;;4995031;28;19922;-69
2023/10/10 03:02:53;;;;;;;14.88;3.58;;;17.10;99.70;;;;;;4993182;28;20042;-69
2023/10/10 03:05:38;;;;;;;17.17;3.83;;;17.10;99.40;;;;;;4986572;28;20030;-69
2023/10/10 03:08:13;;;;;;;9.63;3.78;;;17.20;99.60;;;;;;4986364;28;20022;-69
2023/10/10 03:10:45;;;;;;;13.50;3.35;;;17.10;99.40;;;;;;4990062;28;22677;-69
2023/10/10 03:16:15;;;;;;;10.73;2.92;;;17.10;99.40;;;;;;4991302;28;20140;-70
2023/10/10 03:18:54;;;;;;;16.77;4.18;;;17.10;99.50;;;;;;4985196;28;20362;-69
2023/10/10 03:29:50;;;;;;;17.95;3.58;;;16.90;99.90;;;;;;4976635;28;20038;-69
2023/10/10 03:34:57;;;;;;;22.30;4.32;;;17.00;99.20;;;;;;4987129;28;20568;-69
2023/10/10 03:40:05;;;;;;;9.23;3.13;;;17.10;99.00;;;;;;4987193;28;20035;-69
2023/10/10 05:24:26;;;;;;;;;;;15.40;99.90;;;;;;4983859;28;19972;-69
2023/10/10 05:26:54;;;;;;;;;;;15.20;99.90;;;;;;4982404;28;19962;-69
2023/10/10 05:29:20;;;;;;;;;;;15.40;99.90;;;;;;4984802;28;20324;-69
2023/10/10 05:31:46;;;;;;;;;;;15.40;99.90;;;;;;4982015;28;19996;-69
2023/10/10 05:34:14;;;;;;;;;;;15.20;99.90;;;;;;4986006;28;19944;-69
2023/10/10 05:36:46;;;;;;;;;;;15.20;99.90;;;;;;4983090;28;20720;-69
2023/10/10 05:39:17;;;;;;;;;;;15.20;99.90;;;;;;4982266;28;19909;-70
2023/10/10 05:41:44;;;;;;;;;;;15.10;99.90;;;;;;4985962;28;19918;-71
2023/10/10 05:44:13;;;;;;;;;;;15.30;99.90;;;;;;4982496;28;20272;-71
2023/10/10 05:46:38;;;;;;;;;;;15.30;99.90;;;;;;4988450;28;19909;-71
2023/10/10 05:49:05;;;;;;;;;;;15.50;99.90;;;;;;4985586;28;19968;-72
2023/10/10 05:51:31;;;;;;;;;;;15.80;99.90;;;;;;4984052;28;20016;-71
2023/10/10 05:53:56;;;;;;;;;;;15.70;99.90;;;;;;4988220;28;20359;-71
2023/10/10 05:56:23;;;;;;;;;;;15.70;99.90;;;;;;4982532;28;20405;-72
2023/10/10 05:58:49;;;;;;;;;;;15.80;99.90;;;;;;4989489;28;19976;-71
2023/10/10 06:01:16;;;;;;;;;;;15.90;99.90;;;;;;4986223;28;19948;-71
2023/10/10 06:03:45;;;;;;;;;;;15.90;99.90;;;;;;4993173;28;20804;-71
2023/10/10 06:06:15;;;;;;;;;;;15.70;99.90;;;;;;4985389;28;20067;-71
2023/10/10 06:08:44;;;;;;;;;;;15.70;99.90;;;;;;4984410;28;19914;-72
2023/10/10 06:11:16;;;;;;;;;;;15.70;99.90;;;;;;4987043;28;19925;-70
2023/10/10 06:13:43;;;;;;;;;;;15.70;99.90;;;;;;4985992;28;19909;-71
2023/10/10 06:16:12;;;;;;;;;;;15.70;99.90;;;;;;4984993;28;19916;-71
2023/10/10 06:18:41;;;;;;;;;;;15.80;99.90;;;;;;4984665;28;19959;-71
2023/10/10 06:21:07;;;;;;;;;;;15.90;99.90;;;;;;4984089;28;20516;-71
2023/10/10 06:23:35;;;;;;;;;;;15.90;99.90;;;;;;4982869;28;19917;-72
2023/10/10 06:26:01;;;;;;;;;;;15.90;99.90;;;;;;4987356;28;19914;-71
2023/10/10 06:28:27;;;;;;;;;;;16.00;99.90;;;;;;4983927;28;20276;-70
2023/10/10 06:30:53;;;;;;;;;;;15.90;99.90;;;;;;4982864;28;19909;-70
2023/10/10 06:33:27;;;;;;;;;;;15.90;99.90;;;;;;4986987;28;19909;-70
2023/10/10 06:35:53;;;;;;;;;;;15.90;99.90;;;;;;4988960;28;20048;-70
2023/10/10 06:38:24;;;;;;;;;;;15.80;99.90;;;;;;4982798;28;20016;-71
2023/10/10 06:40:53;;;;;;;;;;;15.80;99.90;;;;;;4984688;28;20380;-71
2023/10/10 06:43:19;;;;;;;;;;;15.80;99.90;;;;;;4987012;28;19910;-71
2023/10/10 06:45:52;;;;;;;;;;;15.90;99.90;;;;;;4987700;28;19914;-71
2023/10/10 06:48:21;;;;;;;;;;;16.00;99.90;;;;;;4984009;28;19921;-71
2023/10/10 06:50:49;;;;;;;;;;;15.90;99.90;;;;;;4991322;28;19917;-71
2023/10/10 06:53:28;;;;;;;;;;;15.90;99.90;;;;;;4980613;28;20585;-71
2023/10/10 06:55:54;;;;;;;;;;;16.00;99.90;;;;;;4982164;28;20077;-70
2023/10/10 06:58:20;;;;;;;;;;;16.20;99.90;;;;;;4984371;28;20476;-71
2023/10/10 07:00:46;;;;;;;;;;;16.20;99.90;;;;;;4985539;28;19925;-71
2023/10/10 07:03:18;;;;;;;;;;;16.40;99.90;;;;;;4983682;28;19975;-71
2023/10/10 07:05:44;;;;;;;;;;;16.30;99.90;;;;;;4983181;28;19910;-70
2023/10/10 07:08:13;;;;;;;;;;;16.20;99.90;;;;;;4984422;28;19929;-70
2023/10/10 07:10:42;;;;;;;;;;;16.20;99.90;;;;;;4982659;28;19913;-70
2023/10/10 07:13:12;;;;;;;;;;;16.30;99.90;;;;;;4981405;28;20403;-70
2023/10/10 07:15:39;;;;;;;;;;;16.30;99.90;;;;;;4983585;28;19910;-71
2023/10/10 07:18:14;;;;;;;;;;;16.30;99.90;;;;;;4984795;28;19928;-70
2023/10/10 07:23:36;;;;;;;;;;;16.50;99.90;;;;;;4986627;28;19940;-70
2023/10/10 07:26:25;;;;;;;;;;;16.40;99.90;;;;;;4986634;28;19913;-69
2023/10/10 07:28:55;;;;;;;;;;;16.50;99.90;;;;;;4987597;28;19910;-70
2023/10/10 07:31:21;;;;;;;;;;;16.40;99.90;;;;;;4990594;28;20004;-71
2023/10/10 07:33:55;;;;;;;;;;;16.40;99.90;;;;;;4983955;28;20300;-70
2023/10/10 07:36:24;;;;;;;;;;;16.40;99.90;;;;;;4983984;28;19918;-71
2023/10/10 07:38:54;;;;;;;;;;;16.40;99.90;;;;;;4992477;28;20360;-71
2023/10/10 07:41:21;;;;;;;;;;;16.40;99.90;;;;;;4987651;28;19909;-70
2023/10/10 07:43:49;;;;;;;;;;;16.50;99.90;;;;;;4986763;28;19956;-70
2023/10/10 07:46:22;;;;;;;;;;;16.60;99.90;;;;;;4992852;28;19910;-71
2023/10/10 07:48:53;;;;;;;;;;;16.60;99.90;;;;;;4989444;28;19918;-71
2023/10/10 07:51:28;;;;;;;;;;;16.70;99.90;;;;;;4987693;28;19931;-71
2023/10/10 07:54:13;;;;;;;;;;;16.90;99.90;;;;;;4991649;28;19916;-71
2023/10/10 07:56:48;;;;;;;;;;;17.00;99.90;;;;;;4988683;28;19921;-72
2023/10/10 07:59:19;;;;;;;;;;;17.00;99.90;;;;;;4987045;28;20269;-71
2023/10/10 08:01:47;;;;;;;;;;;17.10;99.90;;;;;;4988727;28;20323;-71
2023/10/10 08:04:14;;;;;;;;;;;17.10;99.90;;;;;;4988694;28;20372;-71
2023/10/10 08:06:44;;;;;;;;;;;17.20;99.90;;;;;;4992243;28;20415;-71
2023/10/10 08:11:43;;;;;;;;;;;17.20;99.90;;;;;;4991003;28;20260;-71
2023/10/10 08:14:09;;;;;;;;;;;17.20;99.90;;;;;;4988481;28;19909;-71
2023/10/10 08:16:34;;;;;;;;;;;17.20;99.90;;;;;;4986754;28;19972;-71
2023/10/10 08:19:08;;;;;;;;;;;17.40;99.90;;;;;;4986454;28;19916;-72
2023/10/10 08:21:37;;;;;;;;;;;17.50;99.90;;;;;;4987770;28;19997;-71
2023/10/10 08:24:04;;;;;;;;;;;17.50;99.90;;;;;;4997229;28;19984;-72
2023/10/10 08:26:38;;;;;;;;;;;17.40;99.90;;;;;;4995236;28;19910;-71
2023/10/10 08:29:06;;;;;;;;;;;17.20;99.90;;;;;;4989762;28;20566;-71
2023/10/10 08:31:32;;;;;;;;;;;17.30;99.90;;;;;;4985947;28;20013;-71
2023/10/10 08:33:58;;;;;;;;;;;17.20;99.90;;;;;;4987514;28;20004;-71
2023/10/10 08:36:23;;;;;;;;;;;17.30;99.90;;;;;;4987473;28;19909;-72
2023/10/10 08:38:53;;;;;;;;;;;17.40;99.90;;;;;;4986302;28;19905;-71
2023/10/10 08:41:26;;;;;;;;;;;17.50;99.90;;;;;;4986294;28;20531;-72
2023/10/10 08:43:53;;;;;;;;;;;17.70;99.90;;;;;;4987412;28;19910;-74
2023/10/10 08:46:29;;;;;;;;;;;17.90;99.90;;;;;;4995884;28;19909;-72
2023/10/10 08:48:59;;;;;;;;;;;17.80;99.90;;;;;;4992728;28;19914;-72
2023/10/10 08:51:33;;;;;;;;;;;17.80;99.90;;;;;;4986293;28;19917;-72
2023/10/10 08:54:12;;;;;;;;;;;17.90;99.90;;;;;;4986858;28;19909;-72
2023/10/10 08:56:38;;;;;;;;;;;17.90;99.90;;;;;;4986309;28;19972;-71
2023/10/10 08:59:06;;;;;;;;;;;18.00;99.90;;;;;;4986974;28;19945;-72
2023/10/10 09:01:39;;;;;;;;;;;18.10;99.90;;;;;;4985981;28;19918;-72
2023/10/10 09:04:05;;;;;;;;;;;18.20;99.90;;;;;;4989862;28;19988;-72
2023/10/10 09:06:44;;;;;;;;;;;18.20;99.90;;;;;;4987265;28;20484;-72
2023/10/10 09:11:56;;;;;;;;;;;18.00;99.90;;;;;;4993512;28;20393;-72
2023/10/10 09:14:40;;;;;;;;;;;18.10;99.90;;;;;;4987272;28;19914;-72
2023/10/10 09:17:09;;;;;;;;;;;18.30;99.90;;;;;;4989994;28;20428;-72
2023/10/10 09:19:43;;;;;;;;;;;18.30;99.90;;;;;;4993335;28;19909;-72
2023/10/10 09:22:25;;;;;;;;;;;18.40;99.90;;;;;;4987497;28;19909;-72
2023/10/10 09:24:55;;;;;;;;;;;18.40;99.90;;;;;;4987328;28;19997;-72
2023/10/10 09:27:22;;;;;;;;;;;18.70;99.80;;;;;;4986893;28;19909;-72
2023/10/10 09:29:57;;;;;;;;;;;18.90;99.90;;;;;;4985420;28;20371;-72
2023/10/10 09:32:34;;;;;;;;;;;19.00;99.30;;;;;;4987871;28;19910;-72
2023/10/10 09:35:00;;;;;;;;;;;19.20;98.80;;;;;;4985948;28;19910;-73
2023/10/10 09:37:30;;;;;;;;;;;19.30;98.20;;;;;;4993574;28;19964;-72
2023/10/10 09:39:56;;;;;;;;;;;19.50;97.80;;;;;;4985689;28;19918;-72
2023/10/10 09:48:04;;;;;;;;;;;20.10;97.20;;;;;;4985847;28;19925;-72
2023/10/10 09:50:35;;;;;;;;;;;20.40;97.70;;;;;;4986678;28;19917;-73
2023/10/10 09:53:01;;;;;;;;;;;20.50;97.10;;;;;;4985925;28;20000;-72
2023/10/10 09:58:01;;;;;;;;;;;20.50;96.80;;;;;;4988287;28;20614;-72
2023/10/10 10:00:46;;;;;;;;;;;20.60;96.80;;;;;;4988539;28;19918;-72
2023/10/10 10:05:58;;;;;;;;;;;21.00;95.30;;;;;;4986142;28;19917;-72
2023/10/10 10:08:37;;;;;;;;;;;21.00;95.20;;;;;;4985061;28;20277;-72
2023/10/10 10:11:22;;;;;;;;;;;21.10;95.30;;;;;;4986784;28;20372;-72
2023/10/10 10:13:54;;;;;;;;;;;21.10;94.80;;;;;;4982310;28;20358;-72
2023/10/10 10:16:45;;;;;;;;;;;21.20;95.30;;;;;;4986641;28;19945;-72
2023/10/10 10:19:15;;;;;;;;;;;21.20;95.40;;;;;;4990775;28;19964;-72
2023/10/10 10:24:32;;;;;;;;;;;21.30;95.90;;;;;;4986945;28;19972;-72
2023/10/10 10:27:27;;;;;;;;;;;21.40;95.40;;;;;;4993345;28;19945;-74
2023/10/10 10:30:08;;;;;;;;;;;21.50;95.00;;;;;;4985675;28;19909;-73
2023/10/10 10:32:35;;;;;;;;;;;21.50;95.00;;;;;;4996464;28;19909;-72
2023/10/10 10:35:02;;;;;;;;;;;21.40;95.10;;;;;;4997522;28;19909;-72
2023/10/10 10:37:28;;;;;;;;;;;21.60;95.00;;;;;;4993068;28;20339;-72
2023/10/10 10:42:42;;;;;;;;;;;21.80;94.10;;;;;;4987295;28;19917;-72
2023/10/10 10:45:38;;;;;;;;;;;21.80;94.00;;;;;;4990294;28;20334;-72
2023/10/10 10:48:07;;;;;;;;;;;21.80;94.90;;;;;;4992025;28;19925;-72
2023/10/10 10:50:43;;;;;;;;;;;21.80;95.20;;;;;;4991949;28;19964;-72
2023/10/10 10:53:31;;;;;;;;;;;21.80;94.40;;;;;;4989015;28;19910;-72
2023/10/10 11:01:17;;;;;;;;;;;21.80;94.60;;;;;;4990758;28;19925;-72
2023/10/10 11:03:43;;;;;;;;;;;21.80;94.30;;;;;;4984826;28;19910;-73
2023/10/10 11:06:10;;;;;;;;;;;21.90;94.50;;;;;;4989074;28;20283;-73
2023/10/10 11:14:09;;;;;;;;;;;21.90;94.20;;;;;;4988143;28;19985;-73
2023/10/10 11:16:37;;;;;;;;;;;22.00;94.70;;;;;;4987733;28;19925;-72
2023/10/10 11:19:53;;;;;;;;;;;21.90;94.30;;;;;;4989143;28;19913;-73
2023/10/10 11:21:56;;;;;;;;;;;22.20;94.70;;;;;;4991387;28;19917;-74
2023/10/10 11:24:25;;;;;;;;;;;22.30;94.50;;;;;;4988984;28;20386;-72
2023/10/10 11:29:45;;;;;;;;;;;22.40;94.10;;;;;;4990138;28;19924;-73
2023/10/10 11:32:13;;;;;;;;;;;22.40;94.50;;;;;;4990477;28;19909;-72
2023/10/10 11:34:45;;;;;;;;;;;22.40;94.40;;;;;;4990697;28;19931;-72
2023/10/10 11:37:14;;;;;;;;;;;22.40;94.90;;;;;;4988446;28;19918;-73
2023/10/10 11:39:47;;;;;;;;;;;22.40;95.10;;;;;;4987758;28;19910;-73
2023/10/10 11:42:35;;;;;;;;;;;22.40;95.40;;;;;;4999118;28;19909;-73
2023/10/10 11:45:04;;;;;;;;;;;22.40;94.90;;;;;;4987440;28;19956;-72
2023/10/10 11:47:42;;;;;;;;;;;22.50;94.20;;;;;;4987767;28;19909;-73
2023/10/10 11:50:08;;;;;;;;;;;22.60;94.90;;;;;;4988621;28;20424;-72
2023/10/10 11:52:34;;;;;;;;;;;22.80;94.40;;;;;;4989947;28;20008;-73
2023/10/10 11:55:00;;;;;;;;;;;22.90;94.30;;;;;;4987012;28;20713;-72
2023/10/10 11:57:28;;;;;;;;;;;23.20;94.50;;;;;;4985416;28;20849;-72
2023/10/10 11:59:58;;;;;;;;;;;23.30;94.60;;;;;;4985873;28;19922;-72
2023/10/10 12:02:39;;;;;;;;;;;23.50;94.20;;;;;;4987045;28;19913;-73
2023/10/10 12:07:58;;;;;;;;;;;23.70;93.60;;;;;;4987312;28;19913;-72
2023/10/10 12:10:30;;;;;;;;;;;23.70;93.00;;;;;;4987058;28;19980;-73
2023/10/10 12:12:56;;;;;;;;;;;23.90;92.70;;;;;;4987630;28;19918;-73
2023/10/10 12:15:22;;;;;;;;;;;24.00;94.20;;;;;;4995703;28;20368;-72
2023/10/10 12:17:52;;;;;;;;;;;24.10;92.60;;;;;;4987268;28;19917;-73
2023/10/10 12:20:18;;;;;;;;;;;24.10;93.70;;;;;;4983905;28;19913;-73
2023/10/10 12:22:44;;;;;;;;;;;24.20;92.40;;;;;;4984873;28;19909;-73
2023/10/10 12:25:14;;;;;;;;;;;24.10;93.10;;;;;;4983515;28;20030;-72
2023/10/10 12:27:46;;;;;;;;;;;24.00;92.60;;;;;;4983403;28;20028;-73
2023/10/10 12:30:18;;;;;;;;;;;24.00;93.10;;;;;;4984981;28;19909;-73
2023/10/10 12:32:47;;;;;;;;;;;24.10;93.30;;;;;;4985315;28;19910;-72
2023/10/10 12:35:12;;;;;;;;;;;24.30;92.80;;;;;;4992077;28;19989;-73
2023/10/10 12:37:38;;;;;;;;;;;24.30;93.00;;;;;;4986807;28;19928;-73
2023/10/10 12:40:09;;;;;;;;;;;24.50;93.10;;;;;;4984700;28;19919;-73
2023/10/10 12:42:37;;;;;;;;;;;24.50;92.60;;;;;;4983750;28;19988;-73
2023/10/10 12:45:03;;;;;;;;;;;24.60;92.90;;;;;;4983752;28;19914;-73
2023/10/10 12:47:32;;;;;;;;;;;24.60;92.70;;;;;;4985052;28;20265;-73
2023/10/10 12:50:04;;;;;;;;;;;24.50;92.30;;;;;;4983550;28;20295;-73
2023/10/10 12:52:35;;;;;;;;;;;24.40;92.60;;;;;;4985130;28;20528;-73
2023/10/10 12:55:09;;;;;;;;;;;24.40;92.40;;;;;;4983480;28;20063;-72
2023/10/10 12:57:36;;;;;;;;;;;24.20;91.60;;;;;;4984608;28;20020;-72
2023/10/10 13:00:23;;;;;;;;;;;24.10;92.40;;;;;;4990673;28;19953;-72
2023/10/10 13:02:47;;;;;;;;;;;24.30;92.20;;;;;;4983130;28;19917;-73
2023/10/10 13:05:13;;;;;;;;;;;24.30;92.80;;;;;;4982600;28;20321;-72
2023/10/10 13:07:41;;;;;;;;;;;24.40;92.70;;;;;;4983650;28;19910;-72
2023/10/10 13:10:10;;;;;;;;;;;24.60;92.40;;;;;;4983923;28;19956;-73
2023/10/10 13:12:46;;;;;;;;;;;24.80;92.20;;;;;;4983895;28;19924;-73
2023/10/10 13:15:47;;;;;;;;;;;25.10;92.90;;;;;;4983990;28;19925;-75
2023/10/10 13:18:19;;;;;;;;;;;25.00;91.70;;;;;;4982753;28;20360;-73
2023/10/10 13:20:43;;;;;;;;;;;25.10;92.60;;;;;;4982185;28;19913;-73
2023/10/10 13:23:09;;;;;;;;;;;25.50;92.80;;;;;;4983828;28;20008;-73
2023/10/10 13:25:37;;;;;;;;;;;25.50;93.40;;;;;;4985204;28;19961;-73
2023/10/10 13:28:09;;;;;;;;;;;25.50;92.30;;;;;;4982562;28;20268;-73
2023/10/10 13:30:38;;;;;;;;;;;25.60;93.00;;;;;;4983321;28;20739;-73
2023/10/10 13:33:05;;;;;;;;;;;25.30;91.70;;;;;;4984367;28;20009;-72
2023/10/10 13:35:30;;;;;;;;;;;25.50;92.60;;;;;;4982589;28;20351;-73
2023/10/10 13:37:56;;;;;;;;;;;25.50;92.40;;;;;;4986138;28;20032;-72
2023/10/10 13:40:22;;;;;;;;;;;25.40;91.90;;;;;;4987106;28;20063;-72
2023/10/10 13:42:48;;;;;;;;;;;25.40;92.60;;;;;;4985530;28;19910;-72
2023/10/10 13:45:18;;;;;;;;;;;25.50;92.10;;;;;;4987221;28;19963;-72
2023/10/10 13:47:48;;;;;;;;;;;25.60;93.00;;;;;;4993391;28;19913;-72
2023/10/10 13:50:31;;;;;;;;;;;25.40;92.20;;;;;;4988761;28;19942;-72
2023/10/10 13:52:58;;;;;;;;;;;25.40;92.70;;;;;;4988036;28;19918;-72
2023/10/10 13:55:24;;;;;;;;;;;25.10;92.70;;;;;;4990971;28;20368;-72
2023/10/10 13:57:49;;;;;;;;;;;25.00;92.40;;;;;;4985896;28;19925;-72
2023/10/10 14:00:29;;;;;;;;;;;24.90;91.90;;;;;;4986108;28;19948;-72
2023/10/10 14:02:59;;;;;;;;;;;24.90;92.80;;;;;;4990599;28;19920;-74
2023/10/10 14:05:29;;;;;;;;;;;24.70;92.20;;;;;;4986146;28;20383;-72
2023/10/10 14:07:55;;;;;;;;;;;24.70;91.90;;;;;;4986693;28;19920;-72
2023/10/10 14:10:20;;;;;;;;;;;24.70;92.10;;;;;;4985592;28;19921;-72
2023/10/10 14:12:46;;;;;;;;;;;24.70;92.40;;;;;;4984811;28;19914;-74
2023/10/10 14:15:12;;;;;;;;;;;24.70;92.50;;;;;;4992844;28;20367;-73
2023/10/10 14:17:37;;;;;;;;;;;24.70;93.00;;;;;;4987545;28;19931;-73
2023/10/10 14:20:19;;;;;;;;;;;24.70;92.90;;;;;;4986019;28;20415;-75
2023/10/10 14:22:45;;;;;;;;;;;24.60;93.10;;;;;;4993926;28;20388;-73
2023/10/10 14:25:12;;;;;;;;;;;24.50;92.90;;;;;;4986365;28;19917;-74
2023/10/10 14:27:40;;;;;;;;;;;24.40;92.40;;;;;;4967412;28;20547;-73
2023/10/10 14:30:20;;;;;;;;;;;24.40;93.20;;;;;;4986015;28;19917;-75
2023/10/10 14:32:46;;;;;;;;;;;24.50;92.90;;;;;;4989257;28;19925;-73
2023/10/10 14:35:12;;;;;;;;;;;24.40;92.90;;;;;;4985476;28;19925;-74
2023/10/10 14:37:38;;;;;;;;;;;24.50;93.10;;;;;;4984960;28;20320;-74
2023/10/10 14:40:08;;;;;;;;;;;24.50;92.80;;;;;;4985789;28;19913;-74
2023/10/10 14:42:33;;;;;;;;;;;24.40;93.00;;;;;;4986495;28;19966;-74
2023/10/10 14:44:59;;;;;;;;;;;24.40;93.30;;;;;;4987081;28;19937;-73
2023/10/10 14:47:24;;;;;;;;;;;24.30;93.00;;;;;;4986893;28;20374;-73
2023/10/10 14:49:56;;;;;;;;;;;24.20;92.80;;;;;;4985336;28;20574;-74
2023/10/10 14:52:21;;;;;;;;;;;24.10;92.60;;;;;;4985397;28;19949;-75
2023/10/10 14:54:48;;;;;;;;;;;24.20;92.40;;;;;;4986205;28;19922;-73
2023/10/10 14:57:23;;;;;;;;;;;24.10;92.50;;;;;;4986682;28;20432;-74
2023/10/10 14:59:49;;;;;;;;;;;24.20;92.70;;;;;;4988303;28;19922;-74
2023/10/10 15:02:16;;;;;;;;;;;24.20;92.60;;;;;;4981065;28;20357;-74
2023/10/10 15:04:41;;;;;;;;;;;24.20;92.60;;;;;;4982589;28;19921;-73
2023/10/10 15:07:07;;;;;;;;;;;24.10;92.60;;;;;;4983893;28;19914;-73
2023/10/10 15:09:35;;;;;;;;;;;24.10;92.70;;;;;;4987771;28;19916;-75
2023/10/10 15:12:01;;;;;;;;;;;24.10;92.70;;;;;;4988766;28;20017;-73
2023/10/10 15:14:31;;;;;;;;;;;24.00;92.70;;;;;;4990860;28;19914;-72
2023/10/10 15:16:58;;;;;;;;;;;24.00;92.70;;;;;;4989326;28;19922;-74
2023/10/10 15:19:24;;;;;;;;;;;24.00;92.90;;;;;;4986192;28;19909;-74
2023/10/10 15:21:50;;;;;;;;;;;24.00;92.90;;;;;;4987082;28;19920;-74
2023/10/10 15:24:16;;;;;;;;;;;23.90;92.90;;;;;;4991629;28;19997;-74
2023/10/10 15:26:45;;;;;;;;;;;24.00;93.20;;;;;;4970757;28;20017;-75
2023/10/10 15:29:12;;;;;;;;;;;24.00;93.10;;;;;;4986737;28;19916;-74
2023/10/10 15:31:40;;;;;;;;;;;24.00;93.20;;;;;;4989934;28;19909;-73
2023/10/10 15:34:06;;;;;;;;;;;24.10;94.10;;;;;;4991574;28;19944;-72
2023/10/10 15:36:32;;;;;;;;;;;24.10;94.10;;;;;;4988973;28;19926;-73
2023/10/10 15:39:04;;;;;;;;;;;24.10;94.50;;;;;;4977191;28;19913;-73
2023/10/10 15:41:31;;;;;;;;;;;24.00;94.50;;;;;;4988682;28;20276;-72
2023/10/10 15:44:02;;;;;;;;;;;23.90;94.30;;;;;;4988646;28;19909;-72
2023/10/10 15:46:28;;;;;;;;;;;23.70;94.50;;;;;;4991192;28;20499;-73
2023/10/10 15:48:54;;;;;;;;;;;23.60;94.90;;;;;;4990115;28;19910;-73
2023/10/10 15:51:20;;;;;;;;;;;23.50;95.40;;;;;;4985184;28;19972;-73
2023/10/10 15:53:46;;;;;;;;;;;23.40;95.80;;;;;;4989060;28;19910;-73
2023/10/10 15:56:12;;;;;;;;;;;23.20;96.90;;;;;;4984015;28;19936;-73
2023/10/10 15:58:39;;;;;;;;;;;23.00;96.90;;;;;;4989396;28;20908;-73
2023/10/10 16:01:12;;;;;;;;;;;22.90;97.30;;;;;;4990656;28;19964;-73
2023/10/10 16:03:38;;;;;;;;;;;22.80;96.70;;;;;;4990621;28;19909;-73
2023/10/10 16:06:07;;;;;;;;;;;22.80;96.80;;;;;;4984034;28;19910;-74
2023/10/10 16:08:36;;;;;;;;;;;22.70;97.30;;;;;;4987521;28;19909;-73
2023/10/10 16:11:03;;;;;;;;;;;22.50;98.30;;;;;;4989238;28;19910;-72
2023/10/10 16:13:28;;;;;;;;;;;22.30;99.20;;;;;;4986772;28;20434;-73
2023/10/10 16:15:57;;;;;;;;;;;22.20;99.60;;;;;;4986668;28;19985;-73
2023/10/10 16:18:23;;;;;;;;;;;22.00;99.40;;;;;;4986262;28;19925;-73
2023/10/10 16:20:49;;;;;;;;;;;22.00;99.60;;;;;;4986437;28;19972;-73
2023/10/10 16:23:15;;;;;;;;;;;21.90;99.90;;;;;;4987640;28;19925;-73
2023/10/10 16:25:40;;;;;;;;;;;21.70;99.90;;;;;;4992521;28;19917;-74
2023/10/10 16:28:06;;;;;;;;;;;21.60;99.90;;;;;;5005939;28;19924;-72
2023/10/10 16:30:34;;;;;;;;;;;21.60;99.90;;;;;;4994046;28;20315;-73
2023/10/10 16:33:00;;;;;;;;;;;21.50;99.90;;;;;;4997680;28;20263;-74
2023/10/10 16:35:25;;;;;;;;;;;21.50;99.90;;;;;;5010040;28;19906;-73
2023/10/10 16:37:53;;;;;;;;;;;21.30;99.90;;;;;;5005106;28;19924;-74
2023/10/10 16:40:20;;;;;;;;;;;21.20;99.90;;;;;;4992261;28;20401;-73
2023/10/10 16:42:46;;;;;;;;;;;21.30;99.90;;;;;;5005999;28;20308;-73
2023/10/10 16:45:11;;;;;;;;;;;21.30;99.90;;;;;;5010500;28;19959;-73
2023/10/10 16:47:41;;;;;;;;;;;21.30;99.90;;;;;;4994997;28;20032;-73
2023/10/10 16:50:08;;;;;;;;;;;21.20;99.90;;;;;;4991753;28;19964;-73
2023/10/10 16:52:36;;;;;;;;;;;21.20;99.90;;;;;;4990744;28;19909;-73
2023/10/10 16:55:09;;;;;;;;;;;21.10;99.70;;;;;;4986590;28;20383;-72
2023/10/10 16:57:36;;;;;;;;;;;21.10;99.50;;;;;;4989572;28;19932;-73
2023/10/10 17:00:02;;;;;;;;;;;21.10;99.30;;;;;;4987659;28;20000;-73
2023/10/10 17:02:28;;;;;;;;;;;21.00;99.50;;;;;;4996480;28;19914;-72
2023/10/10 17:04:53;;;;;;;;;;;21.00;99.50;;;;;;4976346;28;19968;-72
2023/10/10 17:07:19;;;;;;;;;;;20.90;99.50;;;;;;5008413;28;19964;-72
2023/10/10 17:09:45;;;;;;;;;;;20.90;99.40;;;;;;4993871;28;19909;-73